Time,TemperatureF,DewpointF,PressureIn,WindDirection,WindDirectionDegrees,WindSpeedMPH,WindSpeedGustMPH,Humidity,HourlyPrecipIn,Conditions,Clouds,dailyrainin,SoftwareType,DateUTC
2013-02-13 00:01:00,26.0,26.0,29.84,SSE,149,0.0,190.0,100,0.00,,,0.00,,2013-02-13 05:01:00,
2013-02-13 00:11:00,26.0,21.0,29.83,South,185,0.0,6.0,81,0.00,,,0.00,,2013-02-13 05:11:00,
2013-02-13 00:22:00,26.0,21.0,29.83,South,185,0.0,6.0,81,0.00,,,0.00,,2013-02-13 05:22:00,
2013-02-13 00:32:00,25.0,20.0,29.83,SSW,206,0.0,5.0,82,0.00,,,0.00,,2013-02-13 05:32:00,
2013-02-13 00:42:00,25.0,20.0,29.83,SSW,206,0.0,5.0,82,0.00,,,0.00,,2013-02-13 05:42:00,
2013-02-13 00:52:00,25.0,20.0,29.83,South,171,5.0,5.0,82,0.00,,,0.00,,2013-02-13 05:52:00,
2013-02-13 01:00:00,25.0,20.0,29.82,South,173,3.0,6.0,82,0.00,,,0.00,,2013-02-13 06:00:00,
2013-02-13 01:02:00,25.0,20.0,29.82,South,185,0.0,0.0,82,0.00,,,0.00,,2013-02-13 06:02:00,
2013-02-13 01:11:00,25.0,20.0,29.82,South,173,3.0,6.0,82,0.00,,,0.00,,2013-02-13 06:11:00,
2013-02-13 01:21:00,25.0,20.0,29.82,South,173,3.0,6.0,82,0.00,,,0.00,,2013-02-13 06:21:00,
2013-02-13 01:32:00,25.0,20.0,29.82,South,173,3.0,6.0,82,0.00,,,0.00,,2013-02-13 06:32:00,
2013-02-13 01:42:00,25.0,20.0,29.82,South,173,3.0,6.0,82,0.00,,,0.00,,2013-02-13 06:42:00,
2013-02-13 01:52:00,25.0,20.0,29.82,South,173,3.0,6.0,82,0.00,,,0.00,,2013-02-13 06:52:00,
2013-02-13 05:11:00,28.0,24.0,29.75,South,169,3.0,9.0,84,0.00,,,0.00,,2013-02-13 10:11:00,
2013-02-13 05:22:00,28.0,24.0,29.75,South,169,3.0,9.0,84,0.00,,,0.00,,2013-02-13 10:22:00,
2013-02-13 05:32:00,28.0,24.0,29.75,SW,216,0.0,6.0,84,0.00,,,0.00,,2013-02-13 10:32:00,
2013-02-13 05:42:00,28.0,24.0,29.75,SSW,211,3.0,10.0,84,0.00,,,0.00,,2013-02-13 10:42:00,
2013-02-13 05:52:00,28.0,24.0,29.75,SSW,211,3.0,10.0,84,0.00,,,0.00,,2013-02-13 10:52:00,
2013-02-13 06:01:00,28.0,24.0,29.74,South,177,4.0,6.0,84,0.00,,,0.00,,2013-02-13 11:01:00,
2013-02-13 06:11:00,28.0,24.0,29.73,SSW,208,3.0,8.0,84,0.00,,,0.00,,2013-02-13 11:11:00,
2013-02-13 06:22:00,28.0,24.0,29.73,SSW,208,3.0,8.0,84,0.00,,,0.00,,2013-02-13 11:22:00,
2013-02-13 06:32:00,28.0,24.0,29.73,SSE,166,7.0,7.0,84,0.00,,,0.00,,2013-02-13 11:32:00,
2013-02-13 06:42:00,28.0,24.0,29.73,SW,214,3.0,7.0,85,0.00,,,0.00,,2013-02-13 11:42:00,
2013-02-13 06:52:00,28.0,24.0,29.73,SW,214,3.0,7.0,85,0.00,,,0.00,,2013-02-13 11:52:00,
2013-02-13 07:02:00,28.0,24.0,29.72,SSE,153,6.0,9.0,84,0.00,,,0.00,,2013-02-13 12:02:00,
2013-02-13 07:11:00,28.0,24.0,29.72,SSW,199,6.0,8.0,86,0.00,,,0.00,,2013-02-13 12:11:00,
2013-02-13 07:22:00,28.0,24.0,29.72,SSW,199,6.0,8.0,86,0.00,,,0.00,,2013-02-13 12:22:00,
2013-02-13 07:32:00,28.0,24.0,29.71,SW,214,3.0,7.0,86,0.00,,,0.00,,2013-02-13 12:32:00,
2013-02-13 07:42:00,28.0,24.0,29.71,SSE,147,0.0,8.0,85,0.00,,,0.00,,2013-02-13 12:42:00,
2013-02-13 07:52:00,28.0,24.0,29.71,SSE,147,0.0,8.0,85,0.00,,,0.00,,2013-02-13 12:52:00,
2013-02-13 08:02:00,28.0,24.0,29.71,South,173,4.0,6.0,86,0.00,,,0.00,,2013-02-13 13:02:00,
2013-02-13 08:11:00,28.0,24.0,29.70,South,172,3.0,7.0,86,0.00,,,0.00,,2013-02-13 13:11:00,
2013-02-13 08:21:00,28.0,24.0,29.70,South,172,3.0,7.0,86,0.00,,,0.00,,2013-02-13 13:21:00,
2013-02-13 08:32:00,28.0,24.0,29.71,SSE,165,1.0,4.0,86,0.00,,,0.00,,2013-02-13 13:32:00,
2013-02-13 08:42:00,28.0,25.0,29.72,South,178,3.0,6.0,87,0.00,,,0.00,,2013-02-13 13:42:00,
2013-02-13 08:52:00,28.0,25.0,29.72,South,178,3.0,6.0,87,0.00,,,0.00,,2013-02-13 13:52:00,
2013-02-13 09:00:00,29.0,26.0,29.71,South,191,3.0,5.0,87,0.00,,,0.00,,2013-02-13 14:00:00,
2013-02-13 09:01:00,28.0,25.0,29.71,SSW,201,3.0,8.0,87,0.00,,,0.00,,2013-02-13 14:01:00,
2013-02-13 09:11:00,29.0,26.0,29.71,South,191,3.0,5.0,87,0.00,,,0.00,,2013-02-13 14:11:00,
2013-02-13 09:21:00,29.0,26.0,29.71,South,191,3.0,5.0,87,0.00,,,0.00,,2013-02-13 14:21:00,
2013-02-13 09:32:00,29.0,26.0,29.71,South,191,3.0,5.0,87,0.00,,,0.00,,2013-02-13 14:32:00,
2013-02-13 09:42:00,29.0,26.0,29.71,South,191,3.0,5.0,87,0.00,,,0.00,,2013-02-13 14:42:00,
2013-02-13 09:52:00,29.0,26.0,29.71,South,191,3.0,5.0,87,0.00,,,0.00,,2013-02-13 14:52:00,
2013-02-13 13:11:00,36.0,29.0,29.68,SW,225,0.0,10.0,74,0.02,,,0.01,,2013-02-13 18:11:00,
2013-02-13 13:23:00,36.0,29.0,29.68,SW,225,0.0,10.0,74,0.02,,,0.01,,2013-02-13 18:23:00,
2013-02-13 13:32:00,36.0,29.0,29.67,South,176,0.0,6.0,75,0.03,,,0.03,,2013-02-13 18:32:00,
2013-02-13 13:42:00,36.0,29.0,29.67,South,176,0.0,6.0,75,0.03,,,0.03,,2013-02-13 18:42:00,
2013-02-13 13:52:00,36.0,29.0,29.67,West,268,3.0,10.0,74,0.03,,,0.03,,2013-02-13 18:52:00,
2013-02-13 14:01:00,36.0,28.0,29.67,West,278,0.0,9.0,73,0.03,,,0.04,,2013-02-13 19:01:00,
2013-02-13 14:11:00,37.0,29.0,29.67,SW,214,0.0,7.0,73,0.03,,,0.04,,2013-02-13 19:11:00,
2013-02-13 14:21:00,37.0,29.0,29.67,SW,214,0.0,7.0,73,0.03,,,0.04,,2013-02-13 19:21:00,
2013-02-13 14:32:00,36.0,28.0,29.67,WSW,237,0.0,6.0,73,0.04,,,0.06,,2013-02-13 19:32:00,
2013-02-13 14:42:00,36.0,28.0,29.67,WSW,237,0.0,6.0,73,0.04,,,0.06,,2013-02-13 19:42:00,
2013-02-13 14:52:00,37.0,29.0,29.66,SW,230,0.0,7.0,73,0.04,,,0.07,,2013-02-13 19:52:00,
2013-02-13 15:02:00,37.0,29.0,29.66,WSW,257,0.0,5.0,72,0.04,,,0.08,,2013-02-13 20:02:00,
2013-02-13 15:11:00,37.0,29.0,29.66,WSW,242,0.0,5.0,72,0.04,,,0.08,,2013-02-13 20:11:00,
2013-02-13 15:21:00,37.0,29.0,29.66,WSW,242,0.0,5.0,72,0.04,,,0.08,,2013-02-13 20:21:00,
2013-02-13 15:32:00,38.0,30.0,29.66,SW,225,0.0,3.0,72,0.04,,,0.09,,2013-02-13 20:32:00,
2013-02-13 15:42:00,38.0,29.0,29.66,SW,220,0.0,7.0,70,0.04,,,0.10,,2013-02-13 20:42:00,
2013-02-13 15:52:00,38.0,29.0,29.66,SW,220,0.0,7.0,70,0.04,,,0.10,,2013-02-13 20:52:00,
2013-02-13 16:01:00,37.0,28.0,29.66,WSW,245,2.0,3.0,70,0.04,,,0.11,,2013-02-13 21:01:00,
2013-02-13 16:11:00,37.0,28.0,29.66,WSW,245,2.0,3.0,70,0.04,,,0.11,,2013-02-13 21:11:00,
2013-02-13 16:21:00,38.0,29.0,29.67,South,175,0.0,5.0,70,0.03,,,0.11,,2013-02-13 21:21:00,
2013-02-13 16:31:00,38.0,29.0,29.66,South,191,0.0,7.0,70,0.04,,,0.13,,2013-02-13 21:31:00,
2013-02-13 16:42:00,37.0,28.0,29.66,South,190,0.0,5.0,70,0.03,,,0.13,,2013-02-13 21:42:00,
2013-02-13 16:52:00,37.0,28.0,29.66,South,190,0.0,5.0,70,0.03,,,0.13,,2013-02-13 21:52:00,
2013-02-13 17:02:00,37.0,28.0,29.66,SSW,202,3.0,197.0,70,0.03,,,0.14,,2013-02-13 22:02:00,
2013-02-13 17:11:00,37.0,29.0,29.66,South,180,0.0,3.0,72,0.04,,,0.14,,2013-02-13 22:11:00,
2013-02-13 17:21:00,37.0,29.0,29.66,South,180,0.0,3.0,72,0.04,,,0.14,,2013-02-13 22:21:00,
2013-02-13 17:32:00,37.0,29.0,29.67,SSW,194,0.0,2.0,72,0.03,,,0.15,,2013-02-13 22:32:00,
2013-02-13 17:42:00,37.0,29.0,29.67,SSW,194,0.0,2.0,72,0.03,,,0.15,,2013-02-13 22:42:00,
2013-02-13 17:52:00,36.0,28.0,29.67,SSW,200,0.0,5.0,73,0.03,,,0.16,,2013-02-13 22:52:00,
2013-02-13 18:01:00,36.0,29.0,29.67,WSW,243,0.0,5.0,74,0.02,,,0.16,,2013-02-13 23:01:00,
2013-02-13 18:11:00,36.0,29.0,29.67,SSW,204,0.0,2.0,74,0.02,,,0.16,,2013-02-13 23:11:00,
2013-02-13 18:21:00,36.0,29.0,29.67,SSW,204,0.0,2.0,74,0.02,,,0.16,,2013-02-13 23:21:00,
2013-02-13 18:32:00,36.0,29.0,29.67,SSW,201,0.0,0.0,75,0.01,,,0.16,,2013-02-13 23:32:00,
2013-02-13 18:42:00,36.0,29.0,29.67,SSW,201,0.0,0.0,75,0.01,,,0.16,,2013-02-13 23:42:00,
2013-02-13 18:52:00,36.0,29.0,29.67,SSW,206,0.0,0.0,76,0.01,,,0.16,,2013-02-13 23:52:00,
2013-02-13 19:02:00,33.0,27.0,29.68,SSW,207,0.0,0.0,78,0.01,,,0.17,,2013-02-14 00:02:00,
2013-02-13 19:11:00,33.0,27.0,29.68,SSW,207,0.0,0.0,78,0.01,,,0.17,,2013-02-14 00:11:00,
2013-02-13 19:22:00,32.0,27.0,29.67,SSW,207,0.0,2.0,81,0.01,,,0.17,,2013-02-14 00:22:00,
2013-02-13 19:32:00,33.0,28.0,29.67,South,190,0.0,4.0,81,0.01,,,0.17,,2013-02-14 00:32:00,
2013-02-13 19:42:00,33.0,28.0,29.67,South,190,0.0,4.0,81,0.01,,,0.17,,2013-02-14 00:42:00,
2013-02-13 19:52:00,34.0,28.0,29.67,South,188,0.0,4.0,79,0.01,,,0.17,,2013-02-14 00:52:00,
2013-02-13 20:01:00,34.0,28.0,29.68,South,175,1.0,3.0,78,0.01,,,0.17,,2013-02-14 01:01:00,
2013-02-13 20:11:00,34.0,28.0,29.68,SSE,149,0.0,5.0,78,0.00,,,0.17,,2013-02-14 01:11:00,
2013-02-13 20:21:00,34.0,28.0,29.68,SSE,149,0.0,5.0,78,0.00,,,0.17,,2013-02-14 01:21:00,
2013-02-13 20:32:00,34.0,28.0,29.68,SSE,150,0.0,4.0,78,0.01,,,0.18,,2013-02-14 01:32:00,
2013-02-13 20:41:00,34.0,28.0,29.68,SSE,150,0.0,4.0,78,0.01,,,0.18,,2013-02-14 01:41:00,
2013-02-13 20:52:00,34.0,28.0,29.68,SSE,157,0.0,4.0,79,0.01,,,0.18,,2013-02-14 01:52:00,
2013-02-13 21:02:00,33.0,28.0,29.67,South,176,3.0,4.0,80,0.01,,,0.18,,2013-02-14 02:02:00,
2013-02-13 21:11:00,33.0,28.0,29.67,South,176,0.0,3.0,81,0.01,,,0.18,,2013-02-14 02:11:00,
2013-02-13 21:21:00,33.0,28.0,29.67,South,176,0.0,3.0,81,0.01,,,0.18,,2013-02-14 02:21:00,
2013-02-13 21:31:00,33.0,28.0,29.67,South,176,1.0,3.0,81,0.00,,,0.18,,2013-02-14 02:31:00,
2013-02-13 21:41:00,33.0,28.0,29.67,South,176,1.0,3.0,81,0.00,,,0.18,,2013-02-14 02:41:00,
2013-02-13 21:52:00,33.0,28.0,29.67,South,176,1.0,3.0,81,0.00,,,0.18,,2013-02-14 02:52:00,
2013-02-13 22:02:00,33.0,28.0,29.67,South,188,2.0,4.0,81,0.00,,,0.18,,2013-02-14 03:02:00,
2013-02-13 22:11:00,33.0,28.0,29.67,SE,132,3.0,5.0,82,0.00,,,0.18,,2013-02-14 03:11:00,
2013-02-13 22:22:00,33.0,28.0,29.67,SE,132,3.0,5.0,82,0.00,,,0.18,,2013-02-14 03:22:00,
2013-02-13 22:32:00,33.0,28.0,29.67,South,186,2.0,4.0,82,0.00,,,0.18,,2013-02-14 03:32:00,
2013-02-13 22:42:00,33.0,28.0,29.67,South,186,2.0,4.0,82,0.00,,,0.18,,2013-02-14 03:42:00,
2013-02-13 22:52:00,33.0,28.0,29.67,South,177,2.0,4.0,82,0.01,,,0.19,,2013-02-14 03:52:00,
2013-02-13 23:01:00,33.0,28.0,29.67,SSE,162,1.0,3.0,82,0.01,,,0.19,,2013-02-14 04:01:00,
2013-02-13 23:12:00,33.0,28.0,29.67,South,176,0.0,3.0,82,0.01,,,0.19,,2013-02-14 04:12:00,
2013-02-13 23:21:00,33.0,28.0,29.67,South,176,0.0,3.0,82,0.01,,,0.19,,2013-02-14 04:21:00,
2013-02-13 23:32:00,32.0,28.0,29.67,SW,214,0.0,3.0,84,0.01,,,0.19,,2013-02-14 04:32:00,
2013-02-13 23:42:00,32.0,28.0,29.67,SW,214,0.0,3.0,84,0.01,,,0.19,,2013-02-14 04:42:00,
2013-02-13 23:52:00,33.0,29.0,29.67,South,173,0.0,5.0,84,0.01,,,0.19,,2013-02-14 04:52:00,